Faites défiler...
Pontoise :
LFPT 280130Z AUTO 06002KT CAVOK 08/07 Q1023


Rouen :
LFOP 280130Z AUTO 15005KT 9999 SCT037 08/08 Q1023
Toussus :
LFPN 280130Z AUTO 00000KT 1400 0700 R25R/1100D // NSC 08/07 Q1024
Beauvais :
LFOB 280130Z AUTO 12002KT CAVOK 08/08 Q1023 NOSIG
Evreux :
LFOE 280130Z AUTO VRB02KT CAVOK 09/08 Q1023
CDG :
LFPG 280130Z 12003KT 9999 SCT048 SCT220 11/09 Q1024 NOSIG
Orly :
LFPO 280130Z 20004KT CAVOK 11/10 Q1024 NOSIG